Time;durP1;ratioP1;P1;durP2;ratioP2;P2;SDS_P1;SDS_P2;PMS_P1;PMS_P2;Temp;Humidity;BMP_temperature;BMP_pressure;BME280_temperature;BME280_humidity;BME280_pressure;Samples;Min_cycle;Max_cycle;Signal;HPM_P1;HPM_P2
2023/01/13 00:00:48;;;;;;;1.43;0.50;;;12.20;99.90;;;;;;5012798;28;20225;-56
2023/01/13 00:03:15;;;;;;;2.77;1.03;;;12.20;99.90;;;;;;5012455;28;20206;-56
2023/01/13 00:05:42;;;;;;;2.20;0.70;;;12.20;99.90;;;;;;5012472;28;20211;-56
2023/01/13 00:08:08;;;;;;;2.07;0.80;;;12.30;99.90;;;;;;5015165;28;20631;-56
2023/01/13 00:10:35;;;;;;;1.77;0.70;;;12.30;99.90;;;;;;5016349;28;20198;-56
2023/01/13 00:13:04;;;;;;;1.10;0.50;;;12.30;99.90;;;;;;5016533;28;20207;-55
2023/01/13 00:15:32;;;;;;;1.30;0.50;;;12.30;99.90;;;;;;5016594;28;20207;-56
2023/01/13 00:17:59;;;;;;;2.63;0.50;;;12.40;99.90;;;;;;5016327;28;20234;-56
2023/01/13 00:20:25;;;;;;;1.37;0.83;;;12.40;99.90;;;;;;5016500;28;20230;-56
2023/01/13 00:22:52;;;;;;;0.90;0.50;;;12.30;99.90;;;;;;5016647;28;20214;-56
2023/01/13 00:25:19;;;;;;;1.50;0.40;;;12.40;99.90;;;;;;5016378;28;20589;-56
2023/01/13 00:27:46;;;;;;;1.47;0.70;;;12.40;99.90;;;;;;5016101;28;20230;-57
2023/01/13 00:30:14;;;;;;;1.40;0.50;;;12.30;99.90;;;;;;5016781;28;20207;-56
2023/01/13 00:32:41;;;;;;;1.90;0.70;;;12.40;99.90;;;;;;5016100;28;20210;-56
2023/01/13 00:35:08;;;;;;;2.03;0.70;;;12.30;99.90;;;;;;5016147;28;20207;-56
2023/01/13 00:37:36;;;;;;;2.37;0.70;;;12.20;99.90;;;;;;5015859;28;20246;-56
2023/01/13 00:40:03;;;;;;;3.27;0.67;;;12.20;99.90;;;;;;5016196;28;20561;-57
2023/01/13 00:45:16;;;;;;;0.80;0.40;;;12.10;99.90;;;;;;5016320;28;20713;-56
2023/01/13 00:47:42;;;;;;;2.57;0.60;;;12.10;99.90;;;;;;5015798;28;20238;-57
2023/01/13 00:50:10;;;;;;;2.27;0.97;;;12.00;99.90;;;;;;5016326;28;20210;-56
2023/01/13 00:52:37;;;;;;;2.37;0.83;;;12.00;99.90;;;;;;5016544;28;20207;-56
2023/01/13 00:55:04;;;;;;;2.60;0.80;;;12.00;99.90;;;;;;5016409;28;20202;-56
2023/01/13 00:57:31;;;;;;;0.73;0.50;;;12.00;99.90;;;;;;5016208;28;20241;-56
2023/01/13 00:59:58;;;;;;;0.93;0.40;;;11.90;99.90;;;;;;5016623;28;20753;-56
2023/01/13 01:02:26;;;;;;;1.00;0.53;;;12.00;99.90;;;;;;5016648;28;20217;-56
2023/01/13 01:04:53;;;;;;;0.67;0.57;;;12.00;99.90;;;;;;5015819;28;20210;-56
2023/01/13 01:07:19;;;;;;;3.23;0.60;;;12.10;99.90;;;;;;5015461;28;20234;-55
2023/01/13 01:09:46;;;;;;;1.37;0.60;;;12.10;99.90;;;;;;5015371;28;20253;-56
2023/01/13 01:12:13;;;;;;;2.60;0.93;;;12.20;99.90;;;;;;5016144;28;20621;-56
2023/01/13 01:14:40;;;;;;;0.60;0.53;;;12.30;99.90;;;;;;5016016;28;20243;-56
2023/01/13 01:17:06;;;;;;;1.93;0.70;;;12.30;99.90;;;;;;5016002;28;20203;-56
2023/01/13 01:19:36;;;;;;;2.27;0.50;;;12.40;99.90;;;;;;5016025;28;20223;-55
2023/01/13 01:22:03;;;;;;;1.50;0.50;;;12.40;99.90;;;;;;5015722;28;20662;-56
2023/01/13 01:24:29;;;;;;;3.37;0.67;;;12.30;99.90;;;;;;5015605;28;20214;-56
2023/01/13 01:26:56;;;;;;;1.50;0.53;;;12.30;99.90;;;;;;5016043;28;20227;-56
2023/01/13 01:29:23;;;;;;;1.37;0.60;;;12.40;99.90;;;;;;5014942;28;20738;-57
2023/01/13 01:31:50;;;;;;;1.93;0.80;;;12.40;99.90;;;;;;5014840;28;20217;-57
2023/01/13 01:34:16;;;;;;;2.27;0.73;;;12.40;99.90;;;;;;5015394;28;20211;-57
2023/01/13 01:36:44;;;;;;;2.67;0.53;;;12.40;99.90;;;;;;5015397;28;20611;-57
2023/01/13 01:39:11;;;;;;;1.53;0.67;;;12.40;99.90;;;;;;5015095;28;20635;-57
2023/01/13 01:41:38;;;;;;;1.67;0.67;;;12.40;99.90;;;;;;5015269;28;20692;-57
2023/01/13 01:44:26;;;;;;;0.73;0.40;;;12.40;99.90;;;;;;5014959;28;20207;-57
2023/01/13 01:46:54;;;;;;;1.97;0.60;;;12.40;99.90;;;;;;5014834;28;20636;-57
2023/01/13 01:49:24;;;;;;;2.27;0.60;;;12.30;99.90;;;;;;5015383;28;20322;-57
2023/01/13 01:51:56;;;;;;;1.93;0.43;;;12.40;99.90;;;;;;5015289;28;20215;-57
2023/01/13 01:54:28;;;;;;;2.67;0.60;;;12.30;99.90;;;;;;5015084;28;20207;-57
2023/01/13 01:56:55;;;;;;;1.37;0.50;;;12.30;99.90;;;;;;5014940;28;20243;-57
2023/01/13 01:59:23;;;;;;;1.90;0.70;;;12.30;99.90;;;;;;5014567;28;20222;-57
2023/01/13 02:01:50;;;;;;;1.83;0.73;;;12.40;99.90;;;;;;5015141;28;20211;-57
2023/01/13 02:04:25;;;;;;;1.63;0.50;;;12.40;99.90;;;;;;5014634;28;20682;-57
2023/01/13 02:06:55;;;;;;;2.83;0.53;;;12.50;99.90;;;;;;5014368;28;20230;-57
2023/01/13 02:09:24;;;;;;;2.10;1.00;;;12.40;99.90;;;;;;5014049;28;20258;-57
2023/01/13 02:14:36;;;;;;;3.23;0.60;;;12.30;99.90;;;;;;5014897;28;20209;-57
2023/01/13 02:17:19;;;;;;;1.53;0.60;;;12.40;99.90;;;;;;5014515;28;20212;-57
2023/01/13 02:20:24;;;;;;;1.53;0.70;;;12.40;99.90;;;;;;5014442;28;20262;-57
2023/01/13 02:26:27;;;;;;;1.57;0.50;;;12.40;99.90;;;;;;5015459;28;20268;-57
2023/01/13 02:32:07;;;;;;;0.93;0.50;;;12.40;99.90;;;;;;5015627;28;20202;-58
2023/01/13 02:34:38;;;;;;;1.40;0.50;;;12.40;99.90;;;;;;5014886;28;20260;-58
2023/01/13 02:37:12;;;;;;;1.23;0.60;;;12.50;99.90;;;;;;5014752;28;20207;-59
2023/01/13 02:39:46;;;;;;;4.40;0.83;;;12.50;99.90;;;;;;5014677;28;20211;-58
2023/01/13 02:45:07;;;;;;;2.17;0.50;;;12.60;99.90;;;;;;5014394;28;20213;-58
2023/01/13 02:47:38;;;;;;;1.23;0.60;;;12.60;99.90;;;;;;5014566;28;20317;-58
2023/01/13 02:50:08;;;;;;;0.70;0.37;;;12.60;99.90;;;;;;5013872;28;20202;-58
2023/01/13 02:52:40;;;;;;;3.43;0.60;;;12.60;99.90;;;;;;5014052;28;20265;-58
2023/01/13 02:55:10;;;;;;;1.37;0.50;;;12.60;99.90;;;;;;5014157;28;20683;-58
2023/01/13 02:57:39;;;;;;;4.23;0.70;;;12.60;99.90;;;;;;5013745;28;20230;-58
2023/01/13 03:00:08;;;;;;;1.67;0.60;;;12.70;99.90;;;;;;5013914;28;20206;-58
2023/01/13 03:02:37;;;;;;;3.27;0.90;;;12.60;99.90;;;;;;5014217;28;20207;-58
2023/01/13 03:05:05;;;;;;;1.47;0.63;;;12.60;99.90;;;;;;5014206;28;20299;-58
2023/01/13 03:07:54;;;;;;;2.47;0.50;;;12.60;99.90;;;;;;5013728;28;20227;-58
2023/01/13 03:10:33;;;;;;;3.03;0.60;;;12.60;99.90;;;;;;4994419;28;20211;-58
2023/01/13 03:13:09;;;;;;;1.97;0.70;;;12.60;99.90;;;;;;5013764;28;20597;-58
2023/01/13 03:15:43;;;;;;;1.97;0.70;;;12.60;99.90;;;;;;5013641;28;20218;-59
2023/01/13 03:18:24;;;;;;;1.50;0.70;;;12.60;99.90;;;;;;5013131;28;20231;-59
2023/01/13 03:21:00;;;;;;;4.80;0.90;;;12.60;99.90;;;;;;5013732;28;20674;-58
2023/01/13 03:23:33;;;;;;;1.97;0.53;;;12.70;99.90;;;;;;5013538;28;20211;-58
2023/01/13 03:26:06;;;;;;;2.93;0.80;;;12.70;99.90;;;;;;5013422;28;20203;-58
2023/01/13 03:28:37;;;;;;;2.30;1.20;;;12.70;99.90;;;;;;5013122;28;20230;-58
2023/01/13 03:31:09;;;;;;;0.60;0.30;;;12.80;99.90;;;;;;5013592;28;20203;-58
2023/01/13 03:33:44;;;;;;;1.53;0.67;;;12.80;99.90;;;;;;5013485;28;20211;-59
2023/01/13 03:36:12;;;;;;;2.73;0.57;;;12.80;99.90;;;;;;5013355;28;20238;-58
2023/01/13 03:38:43;;;;;;;2.40;0.60;;;12.80;99.90;;;;;;5012869;28;20230;-58
2023/01/13 03:41:15;;;;;;;3.27;0.40;;;12.70;99.90;;;;;;5012677;28;20682;-58
2023/01/13 03:46:39;;;;;;;1.57;0.63;;;12.70;99.90;;;;;;5014006;28;20201;-58
2023/01/13 03:49:09;;;;;;;3.67;1.37;;;12.60;99.90;;;;;;5013606;28;20235;-58
2023/01/13 03:51:40;;;;;;;2.70;0.77;;;12.60;99.90;;;;;;5014039;28;20211;-58
2023/01/13 03:54:11;;;;;;;1.37;0.50;;;12.60;99.90;;;;;;5013352;28;20226;-58
2023/01/13 03:56:42;;;;;;;1.07;0.30;;;12.50;99.90;;;;;;5013075;28;20602;-58
2023/01/13 03:59:16;;;;;;;2.47;0.50;;;12.50;99.90;;;;;;5012848;28;20725;-58
2023/01/13 04:01:48;;;;;;;2.63;0.47;;;12.40;99.90;;;;;;5013064;28;20203;-58
2023/01/13 04:04:22;;;;;;;3.50;0.70;;;12.40;99.90;;;;;;5012945;28;20676;-58
2023/01/13 04:06:56;;;;;;;1.97;0.70;;;12.40;99.90;;;;;;5013308;28;20679;-58
2023/01/13 04:09:30;;;;;;;1.27;0.50;;;12.40;99.90;;;;;;5012843;28;20269;-58
2023/01/13 04:12:03;;;;;;;2.30;0.90;;;12.30;99.90;;;;;;5013467;28;20215;-59
2023/01/13 04:14:30;;;;;;;1.27;0.50;;;12.20;99.90;;;;;;5013272;28;20207;-58
2023/01/13 04:16:57;;;;;;;1.70;0.60;;;12.20;99.90;;;;;;5013447;28;20203;-58
2023/01/13 04:19:25;;;;;;;0.97;0.43;;;12.20;99.90;;;;;;5014677;28;20233;-58
2023/01/13 04:21:52;;;;;;;1.70;0.70;;;12.10;99.90;;;;;;5016175;28;20210;-58
2023/01/13 04:24:19;;;;;;;1.73;0.50;;;12.10;99.90;;;;;;5017563;28;20214;-58
2023/01/13 04:26:46;;;;;;;2.90;0.70;;;12.00;99.90;;;;;;5016302;28;20234;-59
2023/01/13 04:29:13;;;;;;;1.80;0.60;;;11.90;99.90;;;;;;5014289;28;20313;-58
2023/01/13 04:31:39;;;;;;;2.03;0.33;;;11.90;99.90;;;;;;5013892;28;20207;-59
2023/01/13 04:34:06;;;;;;;1.67;0.97;;;11.90;99.90;;;;;;5013517;28;20222;-58
2023/01/13 04:36:34;;;;;;;0.87;0.50;;;11.80;99.90;;;;;;5012877;28;20210;-58
2023/01/13 04:39:01;;;;;;;2.00;0.63;;;11.80;99.90;;;;;;5012347;28;20296;-58
2023/01/13 04:41:56;;;;;;;1.33;0.50;;;11.90;99.90;;;;;;5012951;28;20207;-58
2023/01/13 04:44:15;;;;;;;0.73;0.50;;;12.00;99.90;;;;;;5012384;28;20218;-58
2023/01/13 04:46:41;;;;;;;1.00;0.60;;;12.10;99.90;;;;;;5012793;28;20217;-58
2023/01/13 04:49:08;;;;;;;1.37;0.60;;;12.20;99.90;;;;;;5012109;28;20242;-58
2023/01/13 04:51:36;;;;;;;1.50;0.57;;;12.20;99.90;;;;;;5012580;28;20210;-56
2023/01/13 04:54:03;;;;;;;2.17;0.60;;;12.20;99.90;;;;;;5015304;28;20203;-57
2023/01/13 04:56:30;;;;;;;2.80;0.53;;;12.20;99.90;;;;;;5016302;28;20217;-57
2023/01/13 04:58:57;;;;;;;3.47;1.20;;;12.20;99.90;;;;;;5015785;28;20227;-57
2023/01/13 05:01:24;;;;;;;0.30;0.20;;;12.30;99.90;;;;;;5016114;28;20592;-56
2023/01/13 05:03:50;;;;;;;1.60;0.60;;;12.30;99.90;;;;;;5015664;28;20555;-56
2023/01/13 05:06:17;;;;;;;0.40;0.40;;;12.30;99.90;;;;;;5016045;28;20239;-56
2023/01/13 05:08:45;;;;;;;1.90;0.90;;;12.40;99.90;;;;;;5015306;28;20231;-57
2023/01/13 05:19:24;;;;;;;1.37;0.50;;;12.50;99.90;;;;;;5015232;28;20585;-57
2023/01/13 05:27:20;;;;;;;1.83;0.70;;;12.70;99.90;;;;;;5015291;28;20654;-59
2023/01/13 05:29:47;;;;;;;2.07;0.80;;;12.70;99.90;;;;;;5015199;28;20596;-57
2023/01/13 05:32:14;;;;;;;7.37;1.80;;;12.80;99.90;;;;;;5016017;28;20207;-57
2023/01/13 05:34:41;;;;;;;3.70;0.90;;;12.80;99.90;;;;;;5016899;28;20217;-57
2023/01/13 05:37:09;;;;;;;1.20;0.50;;;12.70;99.90;;;;;;5016788;28;20211;-58
2023/01/13 05:45:02;;;;;;;1.87;1.00;;;13.00;99.90;;;;;;5015525;28;20312;-58
2023/01/13 05:47:29;;;;;;;3.37;1.10;;;12.90;99.90;;;;;;5014833;28;20215;-58
2023/01/13 05:49:56;;;;;;;3.20;0.50;;;13.00;99.90;;;;;;5015080;28;20211;-58
2023/01/13 05:52:23;;;;;;;1.13;0.70;;;13.00;99.90;;;;;;5014892;28;20207;-58
2023/01/13 05:54:51;;;;;;;2.07;0.90;;;13.00;99.90;;;;;;5014786;28;20686;-58
2023/01/13 05:57:17;;;;;;;1.53;0.70;;;13.10;99.90;;;;;;5014847;28;20218;-58
2023/01/13 05:59:44;;;;;;;1.23;0.50;;;13.10;99.90;;;;;;5014349;28;20203;-57
2023/01/13 06:02:11;;;;;;;1.13;0.60;;;13.10;99.90;;;;;;5014238;28;20210;-58
2023/01/13 06:04:37;;;;;;;1.63;0.67;;;13.10;99.90;;;;;;5014262;28;20213;-58
2023/01/13 06:07:04;;;;;;;0.97;0.40;;;13.10;99.90;;;;;;5014124;28;20207;-58
2023/01/13 06:09:31;;;;;;;1.63;0.70;;;13.00;99.90;;;;;;5013989;28;20249;-58
2023/01/13 06:11:59;;;;;;;1.60;0.63;;;13.10;99.90;;;;;;5013823;28;20691;-58
2023/01/13 06:14:38;;;;;;;1.03;0.37;;;13.00;99.90;;;;;;5014289;28;20212;-58
2023/01/13 06:17:06;;;;;;;1.03;0.50;;;13.00;99.90;;;;;;5013918;28;20667;-58
2023/01/13 06:19:33;;;;;;;0.50;0.40;;;12.90;99.90;;;;;;5014180;28;20233;-58
2023/01/13 06:22:03;;;;;;;1.90;0.50;;;13.00;99.90;;;;;;5014397;28;20214;-58
2023/01/13 06:24:30;;;;;;;0.80;0.40;;;13.00;99.90;;;;;;5013985;28;20210;-58
2023/01/13 06:26:57;;;;;;;2.43;0.60;;;13.00;99.90;;;;;;5013947;28;20211;-58
2023/01/13 06:29:25;;;;;;;1.07;0.30;;;13.00;99.90;;;;;;5013446;28;20234;-58
2023/01/13 06:31:52;;;;;;;3.03;0.80;;;12.90;99.90;;;;;;5013457;28;20214;-58
2023/01/13 06:34:19;;;;;;;1.50;0.50;;;12.90;99.90;;;;;;5013551;28;20647;-58
2023/01/13 06:36:48;;;;;;;0.87;0.47;;;12.90;99.90;;;;;;5013871;28;20214;-58
2023/01/13 06:39:19;;;;;;;0.97;0.43;;;13.00;99.90;;;;;;5013672;28;20227;-58
2023/01/13 06:44:35;;;;;;;0.67;0.43;;;13.00;99.90;;;;;;5013724;28;20286;-58
2023/01/13 06:47:02;;;;;;;1.07;0.50;;;12.90;99.90;;;;;;5013740;28;20218;-58
2023/01/13 06:49:29;;;;;;;1.80;0.43;;;13.00;99.90;;;;;;5013597;28;20239;-58
2023/01/13 06:51:55;;;;;;;1.17;0.40;;;13.00;99.90;;;;;;5013838;28;20222;-59
2023/01/13 06:54:22;;;;;;;1.13;0.43;;;13.00;99.90;;;;;;5014327;28;20217;-58
2023/01/13 06:56:49;;;;;;;1.13;0.60;;;13.10;99.90;;;;;;5014240;28;20269;-59
2023/01/13 06:59:16;;;;;;;1.67;0.97;;;13.00;99.90;;;;;;5013390;28;20246;-58
2023/01/13 07:01:44;;;;;;;1.60;0.30;;;13.00;99.90;;;;;;5013929;28;20222;-58
2023/01/13 07:04:11;;;;;;;0.80;0.30;;;13.00;99.90;;;;;;5013961;28;20214;-58
2023/01/13 07:06:38;;;;;;;2.50;0.77;;;12.90;99.90;;;;;;5013765;28;20215;-57
2023/01/13 07:09:04;;;;;;;1.60;0.50;;;12.90;99.90;;;;;;5013686;28;20230;-56
2023/01/13 07:11:31;;;;;;;2.20;0.93;;;12.90;99.90;;;;;;5013602;28;20309;-57
2023/01/13 07:16:44;;;;;;;0.73;0.60;;;12.90;99.90;;;;;;5013493;28;20205;-58
2023/01/13 07:19:11;;;;;;;1.97;0.90;;;13.10;99.90;;;;;;5013260;28;20227;-57
2023/01/13 07:21:37;;;;;;;0.70;0.60;;;13.20;99.90;;;;;;5013910;28;20491;-57
2023/01/13 07:24:05;;;;;;;0.90;0.53;;;13.30;99.90;;;;;;5013929;28;20242;-58
2023/01/13 07:26:32;;;;;;;1.07;0.50;;;13.40;99.90;;;;;;5013858;28;20215;-57
2023/01/13 07:28:59;;;;;;;0.77;0.50;;;13.30;99.90;;;;;;5014635;28;20237;-58
2023/01/13 07:31:26;;;;;;;2.10;0.80;;;13.30;99.90;;;;;;5015328;28;20202;-58
2023/01/13 07:33:54;;;;;;;2.90;0.60;;;13.20;99.90;;;;;;5014858;28;20301;-57
2023/01/13 07:36:21;;;;;;;1.60;0.40;;;13.20;99.90;;;;;;5014210;28;20202;-58
2023/01/13 07:38:48;;;;;;;0.80;0.40;;;13.20;99.90;;;;;;5013524;28;20223;-58
2023/01/13 07:44:03;;;;;;;0.67;0.50;;;13.30;99.90;;;;;;5013542;28;20253;-57
2023/01/13 07:46:30;;;;;;;1.73;0.80;;;13.40;99.90;;;;;;5014058;28;20679;-57
2023/01/13 07:48:58;;;;;;;0.70;0.50;;;13.30;99.90;;;;;;5013147;28;20227;-60
2023/01/13 07:51:25;;;;;;;1.13;0.67;;;13.30;99.90;;;;;;5013392;28;20210;-59
2023/01/13 07:53:52;;;;;;;0.53;0.37;;;13.30;99.90;;;;;;5013177;28;20246;-59
2023/01/13 07:56:19;;;;;;;1.10;0.40;;;13.30;99.90;;;;;;5013055;28;20245;-58
2023/01/13 07:58:49;;;;;;;0.20;0.20;;;13.30;99.90;;;;;;5012424;28;20227;-58
2023/01/13 08:01:18;;;;;;;1.67;0.93;;;13.20;99.90;;;;;;5012882;28;20250;-59
2023/01/13 08:03:45;;;;;;;0.43;0.33;;;13.30;99.90;;;;;;5013159;28;20241;-58
2023/01/13 08:06:13;;;;;;;1.40;0.90;;;13.30;99.90;;;;;;5013204;28;20221;-59
2023/01/13 08:08:40;;;;;;;1.83;0.77;;;13.40;99.90;;;;;;5013003;28;20234;-59
2023/01/13 08:11:08;;;;;;;2.10;0.77;;;13.50;99.90;;;;;;5013083;28;20218;-58
2023/01/13 08:13:35;;;;;;;1.33;0.70;;;13.50;99.90;;;;;;5013130;28;20222;-59
2023/01/13 08:16:04;;;;;;;0.47;0.30;;;13.50;99.90;;;;;;5012683;28;20206;-59
2023/01/13 08:18:33;;;;;;;1.03;0.80;;;13.60;99.90;;;;;;5012951;28;20322;-59
2023/01/13 08:21:03;;;;;;;2.03;0.50;;;13.60;99.90;;;;;;5012783;28;20214;-59
2023/01/13 08:23:31;;;;;;;1.60;0.40;;;13.60;99.90;;;;;;5012699;28;20644;-59
2023/01/13 08:26:01;;;;;;;0.57;0.40;;;13.70;99.90;;;;;;5012773;28;20215;-59
2023/01/13 08:28:27;;;;;;;0.80;0.53;;;13.70;99.90;;;;;;5014633;28;20231;-59
2023/01/13 08:30:54;;;;;;;1.17;0.80;;;13.70;99.90;;;;;;5016460;28;20211;-59
2023/01/13 08:33:21;;;;;;;0.40;0.30;;;13.70;99.90;;;;;;5016240;28;20219;-59
2023/01/13 08:35:51;;;;;;;1.10;0.33;;;13.70;99.90;;;;;;5016333;28;20207;-59
2023/01/13 08:38:18;;;;;;;3.30;1.77;;;13.70;99.90;;;;;;5015986;28;20229;-61
2023/01/13 08:40:46;;;;;;;0.80;0.50;;;13.80;99.90;;;;;;5016581;28;20289;-60
2023/01/13 08:43:13;;;;;;;4.10;0.40;;;14.00;99.90;;;;;;5016534;28;20210;-60
2023/01/13 08:45:40;;;;;;;0.50;0.50;;;14.00;99.90;;;;;;5016751;28;20210;-60
2023/01/13 08:48:06;;;;;;;2.13;0.47;;;13.90;99.90;;;;;;5016156;28;20234;-60
2023/01/13 08:50:33;;;;;;;1.10;0.63;;;13.90;99.90;;;;;;5016081;28;20235;-59
2023/01/13 08:53:00;;;;;;;1.60;0.50;;;13.70;99.90;;;;;;5016809;28;20222;-59
2023/01/13 08:55:27;;;;;;;1.53;0.80;;;13.60;99.90;;;;;;5016518;28;20235;-59
2023/01/13 08:57:55;;;;;;;0.90;0.70;;;13.50;99.90;;;;;;5016364;28;20377;-58
2023/01/13 09:00:22;;;;;;;2.33;0.90;;;13.40;99.90;;;;;;5017600;28;20203;-59
2023/01/13 09:02:49;;;;;;;1.33;0.90;;;13.30;99.90;;;;;;5018391;28;20283;-58
2023/01/13 09:05:16;;;;;;;1.87;1.10;;;13.40;99.90;;;;;;5017356;28;20698;-57
2023/01/13 09:07:43;;;;;;;1.27;0.50;;;13.40;99.90;;;;;;5016898;28;20330;-57
2023/01/13 09:10:10;;;;;;;0.70;0.40;;;13.40;99.90;;;;;;5016130;28;20231;-57
2023/01/13 09:15:23;;;;;;;1.83;0.47;;;13.40;99.90;;;;;;5016646;28;20249;-55
2023/01/13 09:17:50;;;;;;;2.00;0.80;;;13.30;99.90;;;;;;5016128;28;20305;-56
2023/01/13 09:20:17;;;;;;;5.83;1.53;;;13.10;99.90;;;;;;5016425;28;20260;-60
2023/01/13 09:22:43;;;;;;;1.13;0.30;;;12.90;99.90;;;;;;5016257;28;20269;-57
2023/01/13 09:25:11;;;;;;;1.77;0.40;;;12.70;99.90;;;;;;5016516;28;20294;-55
2023/01/13 09:27:38;;;;;;;2.50;1.00;;;12.50;99.90;;;;;;5016079;28;20223;-54
2023/01/13 09:30:06;;;;;;;3.37;1.03;;;12.30;99.90;;;;;;5015806;28;20227;-56
2023/01/13 09:32:37;;;;;;;6.70;3.20;;;12.10;99.90;;;;;;5016926;28;20247;-55
2023/01/13 09:35:03;;;;;;;1.30;0.60;;;11.90;99.90;;;;;;5016155;28;20245;-55
2023/01/13 09:37:33;;;;;;;1.60;0.90;;;11.90;99.90;;;;;;5016349;28;20231;-55
2023/01/13 09:40:00;;;;;;;1.33;0.53;;;11.80;99.90;;;;;;5015386;28;20199;-55
2023/01/13 09:45:19;;;;;;;1.37;0.70;;;11.90;99.90;;;;;;4992679;28;20671;-55
2023/01/13 09:47:54;;;;;;;1.80;0.63;;;12.20;99.90;;;;;;5015530;28;20239;-55
2023/01/13 09:50:32;;;;;;;2.53;1.67;;;12.30;99.90;;;;;;5015680;28;20230;-55
2023/01/13 09:53:00;;;;;;;1.57;0.50;;;12.40;99.90;;;;;;5015619;28;20297;-55
2023/01/13 09:55:32;;;;;;;4.13;1.20;;;12.50;99.90;;;;;;5015288;28;20203;-55
2023/01/13 09:58:02;;;;;;;3.70;3.00;;;12.60;99.90;;;;;;5014973;28;20239;-55
2023/01/13 10:00:35;;;;;;;0.93;0.43;;;12.60;99.90;;;;;;5014521;28;20202;-55
2023/01/13 10:03:31;;;;;;;1.90;0.60;;;12.60;99.90;;;;;;5014932;28;20203;-55
2023/01/13 10:06:03;;;;;;;1.23;0.60;;;12.60;99.90;;;;;;4990782;28;20211;-56
2023/01/13 10:08:33;;;;;;;0.93;0.50;;;12.60;99.90;;;;;;5014299;28;20345;-56
2023/01/13 10:13:12;;;;;;;0.77;0.40;;;12.70;99.90;;;;;;5013914;28;20280;-55
2023/01/13 10:13:49;;;;;;;2.70;0.50;;;12.70;99.90;;;;;;5014153;28;20298;-56
2023/01/13 10:16:27;;;;;;;0.63;0.47;;;12.70;99.90;;;;;;5014222;28;20298;-56
2023/01/13 10:19:04;;;;;;;1.03;0.60;;;12.80;99.90;;;;;;5014256;28;20237;-56
2023/01/13 10:21:58;;;;;;;2.47;1.43;;;12.80;99.90;;;;;;5014207;28;20206;-55
2023/01/13 10:24:35;;;;;;;1.57;0.70;;;12.80;99.90;;;;;;5012295;28;20218;-56
2023/01/13 10:27:04;;;;;;;0.60;0.40;;;12.80;99.90;;;;;;5013721;28;20214;-56
2023/01/13 10:29:32;;;;;;;1.37;0.53;;;12.90;99.90;;;;;;5013596;28;20237;-56
2023/01/13 10:32:00;;;;;;;2.33;0.50;;;12.90;99.90;;;;;;5014136;28;20642;-56
2023/01/13 10:34:29;;;;;;;2.27;0.87;;;12.90;99.90;;;;;;5013851;28;20211;-56
2023/01/13 10:37:00;;;;;;;1.03;0.53;;;12.80;99.90;;;;;;5013707;28;20218;-56
2023/01/13 10:39:27;;;;;;;1.93;0.97;;;12.70;99.90;;;;;;5013517;28;20230;-56
2023/01/13 10:42:05;;;;;;;1.67;0.80;;;12.60;99.90;;;;;;5013833;28;20210;-56
2023/01/13 10:44:31;;;;;;;2.30;0.80;;;12.50;99.90;;;;;;5013843;28;20652;-55
2023/01/13 10:46:59;;;;;;;3.17;0.93;;;12.50;99.90;;;;;;5013798;28;20203;-55
2023/01/13 10:49:31;;;;;;;3.20;0.77;;;12.50;99.90;;;;;;5012976;28;20226;-56
2023/01/13 10:51:59;;;;;;;1.70;0.80;;;12.50;99.90;;;;;;5013428;28;20232;-56
2023/01/13 10:54:26;;;;;;;5.07;2.37;;;12.50;99.90;;;;;;5013460;28;20203;-56
2023/01/13 10:57:18;;;;;;;2.43;1.00;;;12.60;99.90;;;;;;5013038;28;20210;-56
2023/01/13 10:59:45;;;;;;;2.43;0.60;;;12.60;99.90;;;;;;5013356;28;20207;-57
2023/01/13 11:02:22;;;;;;;3.50;1.00;;;12.60;99.90;;;;;;5013628;28;20245;-55
2023/01/13 11:05:01;;;;;;;3.27;0.90;;;12.60;99.90;;;;;;5013305;28;20217;-55
2023/01/13 11:07:31;;;;;;;1.83;0.60;;;12.70;99.90;;;;;;5013265;28;20252;-55
2023/01/13 11:10:10;;;;;;;3.07;1.10;;;12.60;99.90;;;;;;5012898;28;20227;-54
2023/01/13 11:12:45;;;;;;;1.83;0.60;;;12.50;99.90;;;;;;5013542;28;20211;-55
2023/01/13 11:15:17;;;;;;;2.13;0.93;;;12.40;99.90;;;;;;5013578;28;20206;-56
2023/01/13 11:17:49;;;;;;;2.10;0.53;;;12.40;99.90;;;;;;5013164;28;20223;-55
2023/01/13 11:20:21;;;;;;;0.87;0.67;;;12.40;99.90;;;;;;5013372;28;20590;-55
2023/01/13 11:22:51;;;;;;;1.67;0.67;;;12.30;99.90;;;;;;5013316;28;20298;-55
2023/01/13 11:25:23;;;;;;;2.70;0.90;;;12.10;99.90;;;;;;5013986;28;20210;-55
2023/01/13 11:27:57;;;;;;;2.70;0.60;;;12.00;99.90;;;;;;5013061;28;20256;-55
2023/01/13 11:30:31;;;;;;;2.23;1.00;;;12.00;99.90;;;;;;5012616;28;20237;-55
2023/01/13 11:33:16;;;;;;;2.13;0.80;;;12.00;99.90;;;;;;5012734;28;20195;-55
2023/01/13 11:35:51;;;;;;;1.40;0.80;;;11.90;99.90;;;;;;5013276;28;20210;-55
2023/01/13 11:38:28;;;;;;;1.70;0.60;;;11.80;99.90;;;;;;5012809;28;20714;-55
2023/01/13 11:40:57;;;;;;;2.63;0.90;;;11.70;99.90;;;;;;5012743;28;20207;-56
2023/01/13 11:43:32;;;;;;;2.20;0.87;;;11.70;99.90;;;;;;5012608;28;20698;-55
2023/01/13 11:46:00;;;;;;;1.83;0.80;;;11.50;99.90;;;;;;5012620;28;20210;-55
2023/01/13 11:48:30;;;;;;;4.30;1.10;;;11.50;99.90;;;;;;5012133;28;20239;-56
2023/01/13 11:51:04;;;;;;;1.90;0.67;;;11.50;99.90;;;;;;5012423;28;20289;-55
2023/01/13 11:53:51;;;;;;;1.23;0.77;;;11.50;99.90;;;;;;5012412;28;20210;-55
2023/01/13 11:56:41;;;;;;;3.43;1.03;;;11.50;99.90;;;;;;5012448;28;20665;-55
2023/01/13 11:59:37;;;;;;;3.60;1.03;;;11.60;99.90;;;;;;5012065;28;20309;-55
2023/01/13 12:02:17;;;;;;;7.60;1.73;;;11.60;99.90;;;;;;5014420;28;20214;-55
2023/01/13 12:04:57;;;;;;;5.73;1.20;;;11.70;99.90;;;;;;5016751;28;20289;-56
2023/01/13 12:07:40;;;;;;;5.73;0.87;;;11.80;99.90;;;;;;5016105;28;20237;-55
2023/01/13 12:10:17;;;;;;;3.73;1.00;;;11.90;99.90;;;;;;5016305;28;20222;-55
2023/01/13 12:12:53;;;;;;;1.70;0.70;;;12.00;99.90;;;;;;5016435;28;20601;-55
2023/01/13 12:15:31;;;;;;;5.97;1.23;;;12.20;99.90;;;;;;5016367;28;20261;-55
2023/01/13 12:18:20;;;;;;;3.80;0.80;;;12.30;99.90;;;;;;5015860;28;20310;-54
2023/01/13 12:21:05;;;;;;;2.40;0.80;;;12.50;99.90;;;;;;5016179;28;20230;-57
2023/01/13 12:23:38;;;;;;;3.83;1.13;;;12.70;99.90;;;;;;5016756;28;20207;-55
2023/01/13 12:26:10;;;;;;;2.17;1.00;;;12.90;99.90;;;;;;5016226;28;20203;-55
2023/01/13 12:28:44;;;;;;;4.60;1.43;;;13.10;99.90;;;;;;5016515;28;20226;-55
2023/01/13 12:31:11;;;;;;;1.50;0.80;;;13.20;99.90;;;;;;5016830;28;20576;-56
2023/01/13 12:33:51;;;;;;;2.97;1.20;;;13.10;99.90;;;;;;5016705;28;20313;-55
2023/01/13 12:36:26;;;;;;;2.73;1.10;;;13.10;99.90;;;;;;5016368;28;20213;-56
2023/01/13 12:38:58;;;;;;;2.20;1.07;;;13.00;99.90;;;;;;5016598;28;20234;-55
2023/01/13 12:41:35;;;;;;;4.30;1.00;;;12.90;99.90;;;;;;5016636;28;20269;-55
2023/01/13 12:44:19;;;;;;;1.73;0.70;;;12.80;99.90;;;;;;5016669;28;20218;-56
2023/01/13 12:46:54;;;;;;;3.77;2.40;;;12.90;99.90;;;;;;5017146;28;20217;-55
2023/01/13 12:49:30;;;;;;;9.47;3.13;;;12.80;99.90;;;;;;5015965;28;20242;-55
2023/01/13 12:52:14;;;;;;;3.57;1.40;;;12.70;99.90;;;;;;5015732;28;20222;-55
2023/01/13 12:55:19;;;;;;;6.63;2.27;;;12.70;99.90;;;;;;5015911;28;20206;-55
2023/01/13 12:57:58;;;;;;;3.17;1.00;;;12.80;99.90;;;;;;4974556;28;20239;-57
2023/01/13 13:00:32;;;;;;;3.40;1.03;;;12.90;99.90;;;;;;4974076;28;20212;-57
2023/01/13 13:03:33;;;;;;;1.97;1.00;;;12.90;99.90;;;;;;4999338;28;20298;-55
2023/01/13 13:06:09;;;;;;;3.80;1.00;;;12.80;99.90;;;;;;5015801;28;20264;-55
2023/01/13 13:09:17;;;;;;;2.70;1.00;;;12.70;99.90;;;;;;5015715;28;20304;-56
2023/01/13 13:14:59;;;;;;;3.27;1.07;;;12.90;99.90;;;;;;5013691;28;20344;-55
2023/01/13 13:18:07;;;;;;;3.53;1.10;;;13.00;99.90;;;;;;5014444;28;20215;-55
2023/01/13 13:20:58;;;;;;;5.67;1.53;;;13.10;99.90;;;;;;5016514;28;20203;-56
2023/01/13 13:23:43;;;;;;;5.67;1.33;;;13.10;99.90;;;;;;5015857;28;20245;-56
2023/01/13 13:26:23;;;;;;;6.07;1.40;;;13.20;99.90;;;;;;5016348;28;20226;-55
2023/01/13 13:29:16;;;;;;;4.53;1.47;;;13.10;99.90;;;;;;5016272;28;20620;-54
2023/01/13 13:32:03;;;;;;;2.77;1.27;;;12.90;99.90;;;;;;5015086;28;20707;-56
2023/01/13 13:34:37;;;;;;;4.80;1.30;;;12.60;99.90;;;;;;5015814;28;20218;-56
2023/01/13 13:37:19;;;;;;;3.50;1.40;;;12.50;99.90;;;;;;5015621;28;20234;-55
2023/01/13 13:48:20;;;;;;;4.13;1.53;;;13.20;99.90;;;;;;5016139;28;20257;-56
2023/01/13 13:50:48;;;;;;;7.47;2.10;;;13.00;99.90;;;;;;5015854;28;20226;-55
2023/01/13 13:53:17;;;;;;;2.83;1.07;;;12.90;99.90;;;;;;5017087;28;20671;-54
2023/01/13 13:55:53;;;;;;;5.33;1.40;;;12.90;99.90;;;;;;5016531;28;20211;-55
2023/01/13 13:58:20;;;;;;;4.03;1.67;;;12.80;99.90;;;;;;5016147;28;20231;-55
2023/01/13 14:00:49;;;;;;;5.57;1.40;;;12.70;99.90;;;;;;5015924;28;20207;-55
2023/01/13 14:03:23;;;;;;;6.00;1.50;;;12.60;99.90;;;;;;5016438;28;20288;-55
2023/01/13 14:05:55;;;;;;;5.10;1.60;;;12.50;99.90;;;;;;5016389;28;20608;-56
2023/01/13 14:08:22;;;;;;;5.87;1.53;;;12.60;99.90;;;;;;5015690;28;20314;-56
2023/01/13 14:10:49;;;;;;;5.80;1.40;;;12.60;99.90;;;;;;5015318;28;20242;-55